createdAt,value
2018-04-19T00:01:49.309Z,9.00
2018-04-19T00:04:16.838Z,7.37
2018-04-19T00:06:44.358Z,6.90
2018-04-19T00:09:12.690Z,8.10
2018-04-19T00:11:40.216Z,8.07
2018-04-19T00:14:07.711Z,8.50
2018-04-19T00:16:35.232Z,8.80
2018-04-19T00:19:02.770Z,8.80
2018-04-19T00:21:31.050Z,7.70
2018-04-19T00:23:59.348Z,7.90
2018-04-19T00:26:26.858Z,7.97
2018-04-19T00:28:54.368Z,6.50
2018-04-19T00:31:21.862Z,9.60
2018-04-19T00:33:49.412Z,7.70
2018-04-19T00:36:16.915Z,8.57
2018-04-19T00:38:45.215Z,9.30
2018-04-19T00:41:12.738Z,7.50
2018-04-19T00:43:41.054Z,8.23
2018-04-19T00:46:08.547Z,7.70
2018-04-19T00:48:36.068Z,9.50
2018-04-19T00:51:03.564Z,7.90
2018-04-19T00:53:31.099Z,9.47
2018-04-19T00:55:58.609Z,9.37
2018-04-19T00:58:26.149Z,8.57
2018-04-19T01:00:53.645Z,10.20
2018-04-19T01:03:21.173Z,9.83
2018-04-19T01:05:49.464Z,10.10
2018-04-19T01:08:17.738Z,9.37
2018-04-19T01:10:46.035Z,10.73
2018-04-19T01:13:13.574Z,10.57
2018-04-19T01:15:41.922Z,10.20
2018-04-19T01:18:09.422Z,11.00
2018-04-19T01:20:36.956Z,10.30
2018-04-19T01:23:05.222Z,10.20
2018-04-19T01:25:32.751Z,9.37
2018-04-19T01:28:00.256Z,10.23
2018-04-19T01:30:27.774Z,8.77
2018-04-19T01:32:55.274Z,8.73
2018-04-19T01:35:34.679Z,9.20
2018-04-19T01:38:02.187Z,9.50
2018-04-19T01:40:29.719Z,7.17
2018-04-19T01:42:57.975Z,8.63
2018-04-19T01:45:25.535Z,9.43
2018-04-19T01:47:53.036Z,9.90
2018-04-19T01:50:20.584Z,11.13
2018-04-19T01:52:48.107Z,8.20
2018-04-19T01:55:15.610Z,9.90
2018-04-19T01:57:43.145Z,11.40
2018-04-19T02:00:10.661Z,11.77
2018-04-19T02:02:38.189Z,11.87
2018-04-19T02:05:05.697Z,11.43
2018-04-19T02:07:33.979Z,10.50
2018-04-19T02:10:02.283Z,12.40
2018-04-19T02:12:29.793Z,12.10
2018-04-19T02:14:57.318Z,12.10
2018-04-19T02:17:24.832Z,12.20
2018-04-19T02:19:53.118Z,10.17
2018-04-19T02:22:21.379Z,15.03
2018-04-19T02:24:49.689Z,14.73
2018-04-19T02:27:17.214Z,13.67
2018-04-19T02:29:45.519Z,11.57
2018-04-19T02:32:13.020Z,10.30
2018-04-19T02:34:40.566Z,11.70
2018-04-19T02:37:08.076Z,10.70
2018-04-19T02:39:36.343Z,10.20
2018-04-19T02:42:04.701Z,10.03
2018-04-19T02:44:32.228Z,12.20
2018-04-19T02:46:59.751Z,11.30
2018-04-19T02:49:27.258Z,10.33
2018-04-19T02:51:54.799Z,10.10
2018-04-19T02:54:22.303Z,11.27
2018-04-19T02:56:50.609Z,9.60
2018-04-19T02:59:18.104Z,9.00
2018-04-19T03:01:45.639Z,10.37
2018-04-19T03:04:13.170Z,9.40
2018-04-19T03:06:40.708Z,13.07
2018-04-19T03:09:08.978Z,11.47
2018-04-19T03:11:37.271Z,11.47
2018-04-19T03:14:04.819Z,11.57
2018-04-19T03:16:33.123Z,10.00
2018-04-19T03:19:00.636Z,9.60
2018-04-19T03:21:28.138Z,10.03
2018-04-19T03:23:55.667Z,12.83
2018-04-19T03:26:23.941Z,11.83
2018-04-19T03:28:52.218Z,9.03
2018-04-19T03:31:20.660Z,11.07
2018-04-19T03:33:48.181Z,12.00
2018-04-19T03:36:15.679Z,9.47
2018-04-19T03:38:43.200Z,9.17
2018-04-19T03:41:10.711Z,11.27
2018-04-19T03:43:38.258Z,11.27
2018-04-19T03:46:05.773Z,13.10
2018-04-19T03:48:33.306Z,13.50
2018-04-19T03:51:01.589Z,11.00
2018-04-19T03:53:29.106Z,12.37
2018-04-19T03:55:56.643Z,10.60
2018-04-19T03:58:24.153Z,10.70
2018-04-19T04:00:52.435Z,11.27
2018-04-19T04:03:20.025Z,9.80
2018-04-19T04:05:47.541Z,10.33
2018-04-19T04:08:15.834Z,10.07
2018-04-19T04:10:43.369Z,9.77
2018-04-19T04:13:10.890Z,9.90
2018-04-19T04:15:38.444Z,10.40
2018-04-19T04:18:17.759Z,11.23
2018-04-19T04:20:57.316Z,11.10
2018-04-19T04:23:50.874Z,13.40
2018-04-19T04:26:18.506Z,10.47
2018-04-19T04:28:46.014Z,10.53
2018-04-19T04:31:13.656Z,11.97
2018-04-19T04:33:41.932Z,13.10
2018-04-19T04:36:09.438Z,14.03
2018-04-19T04:38:37.740Z,10.40
2018-04-19T04:41:05.279Z,11.00
2018-04-19T04:43:33.603Z,16.10
2018-04-19T04:46:01.125Z,11.90
2018-04-19T04:48:28.636Z,14.43
2018-04-19T04:50:56.159Z,13.57
2018-04-19T04:53:23.659Z,12.77
2018-04-19T04:55:51.155Z,14.90
2018-04-19T04:58:18.710Z,11.37
2018-04-19T05:00:46.230Z,11.17
2018-04-19T05:03:13.799Z,11.23
2018-04-19T05:05:41.322Z,11.97
2018-04-19T05:08:08.872Z,12.40
2018-04-19T05:10:36.445Z,11.60
2018-04-19T05:13:03.975Z,12.70
2018-04-19T05:15:31.482Z,12.50
2018-04-19T05:17:59.002Z,12.53
2018-04-19T05:20:26.571Z,12.00
2018-04-19T05:22:54.066Z,15.00
2018-04-19T05:25:22.343Z,13.90
2018-04-19T05:27:50.641Z,14.97
2018-04-19T05:30:18.158Z,13.10
2018-04-19T05:32:45.662Z,12.83
2018-04-19T05:35:13.190Z,11.80
2018-04-19T05:37:40.697Z,12.17
2018-04-19T05:40:08.277Z,12.27
2018-04-19T05:42:35.808Z,11.43
2018-04-19T05:45:03.350Z,11.93
2018-04-19T05:47:30.871Z,16.30
2018-04-19T05:49:58.395Z,13.50
2018-04-19T05:52:25.920Z,13.40
2018-04-19T05:54:53.451Z,14.80
2018-04-19T05:57:21.734Z,14.93
2018-04-19T05:59:50.039Z,14.30
2018-04-19T06:02:17.546Z,14.33
2018-04-19T06:04:45.077Z,18.20
2018-04-19T06:07:12.588Z,18.13
2018-04-19T06:09:40.854Z,16.80
2018-04-19T06:12:09.143Z,17.10
2018-04-19T06:14:37.403Z,17.77
2018-04-19T06:17:05.690Z,18.30
2018-04-19T06:19:33.971Z,17.23
2018-04-19T06:22:01.510Z,19.33
2018-04-19T06:24:29.790Z,18.87
2018-04-19T06:26:58.079Z,18.20
2018-04-19T06:29:25.597Z,18.97
2018-04-19T06:31:53.140Z,17.50
2018-04-19T06:34:20.672Z,20.40
2018-04-19T06:36:48.215Z,19.50
2018-04-19T06:39:15.728Z,19.53
2018-04-19T06:41:43.248Z,19.17
2018-04-19T06:44:10.777Z,18.23
2018-04-19T06:46:39.066Z,20.37
2018-04-19T06:49:06.566Z,19.57
2018-04-19T06:51:34.100Z,19.37
2018-04-19T06:54:01.661Z,18.83
2018-04-19T06:56:29.169Z,20.33
2018-04-19T06:58:56.700Z,19.00
2018-04-19T07:01:24.203Z,19.73
2018-04-19T07:03:51.720Z,19.07
2018-04-19T07:06:19.252Z,18.77
2018-04-19T07:08:46.775Z,18.70
2018-04-19T07:11:14.310Z,19.77
2018-04-19T07:13:42.634Z,17.80
2018-04-19T07:16:10.302Z,19.53
2018-04-19T07:18:37.818Z,18.67
2018-04-19T07:21:05.330Z,18.20
2018-04-19T07:23:32.854Z,20.10
2018-04-19T07:26:00.355Z,19.43
2018-04-19T07:28:27.904Z,19.10
2018-04-19T07:30:55.439Z,20.10
2018-04-19T07:33:22.995Z,19.23
2018-04-19T07:35:50.494Z,18.83
2018-04-19T07:38:18.037Z,17.27
2018-04-19T07:40:45.586Z,19.57
2018-04-19T07:43:13.090Z,18.20
2018-04-19T07:45:41.403Z,19.50
2018-04-19T07:48:08.902Z,20.10
2018-04-19T07:50:36.449Z,16.07
2018-04-19T07:53:03.973Z,17.97
2018-04-19T07:55:31.521Z,18.47
2018-04-19T07:57:59.080Z,19.07
2018-04-19T08:00:26.622Z,12.57
2018-04-19T08:02:54.896Z,11.43
2018-04-19T08:05:23.174Z,9.57
2018-04-19T08:07:51.459Z,10.73
2018-04-19T08:10:18.988Z,10.27
2018-04-19T08:12:46.504Z,9.80
2018-04-19T08:15:14.033Z,9.00
2018-04-19T08:17:41.557Z,8.40
2018-04-19T08:20:09.051Z,8.77
2018-04-19T08:22:36.575Z,7.00
2018-04-19T08:25:04.855Z,6.20
2018-04-19T08:27:32.371Z,7.50
2018-04-19T08:29:59.874Z,6.30
2018-04-19T08:32:27.359Z,6.13
2018-04-19T08:34:54.891Z,6.13
2018-04-19T08:37:23.190Z,5.87
2018-04-19T08:39:50.729Z,5.70
2018-04-19T08:42:18.988Z,5.23
2018-04-19T08:44:46.544Z,5.67
2018-04-19T08:47:14.052Z,5.90
2018-04-19T08:49:41.586Z,6.40
2018-04-19T08:52:09.865Z,6.10
2018-04-19T08:54:38.163Z,5.97
2018-04-19T08:57:05.687Z,5.60
2018-04-19T08:59:33.974Z,5.43
2018-04-19T09:02:01.491Z,6.30
2018-04-19T09:04:28.997Z,5.90
2018-04-19T09:06:56.498Z,6.63
2018-04-19T09:09:24.054Z,5.97
2018-04-19T09:11:51.560Z,5.47
2018-04-19T09:14:19.812Z,6.10
2018-04-19T09:16:47.320Z,5.20
2018-04-19T09:19:14.826Z,6.07
2018-04-19T09:21:42.374Z,6.30
2018-04-19T09:24:09.862Z,5.27
2018-04-19T09:26:38.169Z,5.57
2018-04-19T09:29:05.666Z,6.20
2018-04-19T09:31:33.214Z,6.40
2018-04-19T09:34:00.751Z,6.17
2018-04-19T09:36:28.267Z,6.03
2018-04-19T09:38:56.527Z,6.47
2018-04-19T09:41:24.039Z,6.10
2018-04-19T09:43:51.567Z,6.43
2018-04-19T09:46:19.151Z,5.73
2018-04-19T09:48:46.644Z,5.50
2018-04-19T09:51:14.190Z,6.03
2018-04-19T09:53:41.698Z,5.47
2018-04-19T09:56:09.223Z,6.57
2018-04-19T09:58:36.774Z,5.90
2018-04-19T10:01:09.212Z,6.20
2018-04-19T10:03:42.462Z,6.50
2018-04-19T10:06:10.739Z,6.03
2018-04-19T10:08:39.034Z,5.90
2018-04-19T10:11:06.558Z,6.30
2018-04-19T10:13:34.087Z,5.20
2018-04-19T10:16:01.681Z,5.67
2018-04-19T10:18:29.183Z,5.83
2018-04-19T10:20:56.700Z,6.13
2018-04-19T10:23:24.982Z,5.67
2018-04-19T10:25:53.246Z,6.00
2018-04-19T10:28:20.772Z,4.10
2018-04-19T10:30:48.272Z,5.40
2018-04-19T10:33:16.554Z,5.90
2018-04-19T10:35:44.822Z,6.40
2018-04-19T10:38:13.123Z,5.80
2018-04-19T10:40:40.618Z,5.67
2018-04-19T10:43:08.107Z,6.70
2018-04-19T10:45:36.386Z,5.30
2018-04-19T10:48:04.695Z,5.50
2018-04-19T10:50:32.249Z,6.30
2018-04-19T10:52:59.753Z,6.73
2018-04-19T10:55:27.250Z,7.13
2018-04-19T10:57:54.800Z,6.37
2018-04-19T11:00:22.341Z,6.70
2018-04-19T11:02:50.628Z,6.13
2018-04-19T11:05:18.912Z,5.23
2018-04-19T11:07:47.194Z,5.50
2018-04-19T11:10:14.782Z,7.40
2018-04-19T11:12:42.237Z,7.30
2018-04-19T11:15:09.730Z,6.77
2018-04-19T11:17:37.264Z,8.27
2018-04-19T11:20:04.872Z,6.40
2018-04-19T11:22:33.161Z,6.07
2018-04-19T11:25:00.675Z,6.23
2018-04-19T11:27:28.198Z,5.47
2018-04-19T11:29:55.725Z,6.83
2018-04-19T11:32:23.990Z,6.70
2018-04-19T11:34:52.288Z,6.20
2018-04-19T11:37:19.797Z,6.77
2018-04-19T11:39:48.830Z,6.00
2018-04-19T11:42:16.356Z,6.30
2018-04-19T11:44:43.898Z,6.70
2018-04-19T11:47:11.426Z,6.10
2018-04-19T11:49:38.946Z,5.70
2018-04-19T11:52:07.235Z,7.20
2018-04-19T11:54:34.756Z,9.03
2018-04-19T11:57:03.088Z,7.77
2018-04-19T11:59:30.587Z,5.83
2018-04-19T12:01:58.105Z,6.53
2018-04-19T12:04:25.618Z,6.13
2018-04-19T12:06:53.167Z,5.57
2018-04-19T12:09:20.686Z,5.83
2018-04-19T12:11:48.214Z,5.63
2018-04-19T12:14:16.500Z,6.70
2018-04-19T12:16:44.003Z,5.80
2018-04-19T12:19:11.561Z,5.73
2018-04-19T12:21:39.059Z,6.00
2018-04-19T12:24:07.364Z,6.33
2018-04-19T12:26:34.858Z,5.17
2018-04-19T12:29:02.378Z,5.80
2018-04-19T12:31:29.883Z,6.03
2018-04-19T12:33:57.416Z,6.33
2018-04-19T12:36:24.919Z,6.20
2018-04-19T12:38:53.235Z,6.40
2018-04-19T12:41:20.741Z,6.53
2018-04-19T12:43:48.269Z,7.03
2018-04-19T12:46:15.775Z,7.00
2018-04-19T12:48:43.333Z,5.70
2018-04-19T12:51:11.613Z,6.40
2018-04-19T12:53:39.162Z,5.70
2018-04-19T12:56:07.422Z,5.07
2018-04-19T12:58:35.695Z,5.87
2018-04-19T13:01:03.210Z,5.50
2018-04-19T13:03:30.707Z,7.37
2018-04-19T13:05:58.218Z,6.73
2018-04-19T13:08:25.737Z,6.60
2018-04-19T13:10:54.023Z,5.90
2018-04-19T13:13:21.570Z,5.93
2018-04-19T13:15:49.115Z,5.30
2018-04-19T13:18:16.610Z,4.83
2018-04-19T13:20:44.099Z,5.57
2018-04-19T13:23:11.619Z,4.50
2018-04-19T13:25:39.142Z,4.80
2018-04-19T13:28:06.675Z,4.60
2018-04-19T13:30:34.173Z,5.27
2018-04-19T13:33:02.496Z,6.20
2018-04-19T13:35:29.999Z,5.63
2018-04-19T13:37:58.285Z,5.03
2018-04-19T13:40:27.726Z,4.87
2018-04-19T13:42:55.293Z,4.30
2018-04-19T13:45:22.791Z,4.13
2018-04-19T13:47:51.073Z,4.63
2018-04-19T13:50:19.329Z,4.97
2018-04-19T13:52:46.854Z,4.87
2018-04-19T13:55:14.369Z,4.90
2018-04-19T13:57:42.640Z,5.33
2018-04-19T14:00:10.916Z,4.10
2018-04-19T14:02:39.185Z,4.97
2018-04-19T14:05:07.499Z,5.33
2018-04-19T14:07:35.003Z,4.77
2018-04-19T14:10:02.546Z,5.27
2018-04-19T14:12:30.062Z,5.10
2018-04-19T14:14:57.751Z,5.00
2018-04-19T14:17:25.407Z,4.60
2018-04-19T14:19:52.938Z,4.60
2018-04-19T14:22:20.449Z,5.63
2018-04-19T14:24:47.958Z,6.03
2018-04-19T14:27:15.450Z,6.50
2018-04-19T14:29:42.979Z,6.53
2018-04-19T14:32:10.506Z,4.90
2018-04-19T14:34:38.801Z,5.50
2018-04-19T14:37:06.335Z,6.70
2018-04-19T14:39:34.599Z,6.03
2018-04-19T14:42:02.147Z,5.37
2018-04-19T14:44:29.738Z,4.83
2018-04-19T14:46:58.034Z,6.00
2018-04-19T14:49:25.543Z,5.97
2018-04-19T14:51:53.074Z,4.77
2018-04-19T14:54:20.571Z,5.17
2018-04-19T14:56:48.887Z,6.00
2018-04-19T14:59:16.396Z,5.40
2018-04-19T15:01:43.949Z,6.33
2018-04-19T15:04:11.468Z,6.33
2018-04-19T15:06:39.015Z,6.80
2018-04-19T15:09:07.376Z,6.47
2018-04-19T15:11:35.663Z,4.97
2018-04-19T15:14:03.214Z,5.73
2018-04-19T15:16:30.714Z,5.70
2018-04-19T15:18:58.412Z,5.77
2018-04-19T15:21:26.689Z,5.90
2018-04-19T15:23:54.987Z,6.17
2018-04-19T15:26:22.504Z,6.20
2018-04-19T15:28:50.047Z,6.50
2018-04-19T15:31:17.579Z,5.60
2018-04-19T15:33:45.932Z,5.70
2018-04-19T15:36:13.463Z,7.37
2018-04-19T15:38:40.990Z,6.00
2018-04-19T15:41:08.525Z,5.20
2018-04-19T15:43:36.035Z,7.60
2018-04-19T15:46:03.570Z,6.50
2018-04-19T15:48:31.067Z,6.10
2018-04-19T15:50:59.371Z,5.97
2018-04-19T15:53:26.875Z,4.97
2018-04-19T15:55:54.425Z,6.50
2018-04-19T15:58:21.928Z,5.93
2018-04-19T16:00:49.460Z,4.63
2018-04-19T16:03:16.990Z,5.10
2018-04-19T16:05:44.504Z,6.10
2018-04-19T16:08:12.039Z,5.30
2018-04-19T16:10:39.542Z,5.40
2018-04-19T16:13:07.075Z,5.53
2018-04-19T16:15:34.594Z,5.07
2018-04-19T16:18:02.130Z,4.70
2018-04-19T16:20:29.679Z,5.60
2018-04-19T16:22:57.204Z,4.73
2018-04-19T16:25:25.522Z,4.83
2018-04-19T16:27:53.055Z,4.67
2018-04-19T16:30:20.618Z,3.83
2018-04-19T16:32:48.102Z,3.63
2018-04-19T16:35:15.615Z,3.53
2018-04-19T16:37:43.186Z,4.00
2018-04-19T16:40:10.755Z,3.77
2018-04-19T16:42:38.360Z,4.17
2018-04-19T16:45:05.944Z,4.20
2018-04-19T16:47:34.307Z,3.73
2018-04-19T16:50:01.846Z,3.50
2018-04-19T16:52:29.365Z,3.60
2018-04-19T16:54:56.900Z,3.70
2018-04-19T16:57:24.414Z,3.57
2018-04-19T16:59:52.227Z,4.17
2018-04-19T17:02:19.766Z,3.50
2018-04-19T17:04:48.073Z,3.53
2018-04-19T17:07:15.611Z,3.57
2018-04-19T17:09:43.154Z,4.00
2018-04-19T17:12:11.428Z,3.70
2018-04-19T17:14:39.724Z,4.50
2018-04-19T17:17:07.243Z,4.03
2018-04-19T17:19:34.770Z,4.30
2018-04-19T17:22:02.287Z,3.87
2018-04-19T17:24:30.642Z,3.80
2018-04-19T17:26:58.147Z,3.97
2018-04-19T17:29:25.727Z,4.20
2018-04-19T17:31:53.217Z,3.80
2018-04-19T17:34:20.765Z,3.50
2018-04-19T17:36:48.255Z,4.67
2018-04-19T17:39:16.578Z,4.57
2018-04-19T17:41:44.101Z,4.67
2018-04-19T17:44:11.612Z,5.10
2018-04-19T17:46:39.128Z,5.50
2018-04-19T17:49:06.631Z,5.10
2018-04-19T17:51:34.147Z,4.83
2018-04-19T17:54:01.671Z,5.10
2018-04-19T17:56:29.975Z,4.30
2018-04-19T17:58:57.481Z,5.20
2018-04-19T18:01:25.006Z,4.60
2018-04-19T18:03:52.522Z,5.23
2018-04-19T18:06:20.801Z,4.30
2018-04-19T18:08:48.367Z,4.63
2018-04-19T18:11:15.919Z,4.67
2018-04-19T18:13:43.459Z,4.83
2018-04-19T18:16:10.961Z,4.67
2018-04-19T18:18:38.492Z,4.53
2018-04-19T18:21:06.752Z,4.80
2018-04-19T18:23:34.343Z,4.80
2018-04-19T18:26:01.861Z,4.60
2018-04-19T18:28:30.154Z,4.77
2018-04-19T18:30:58.452Z,5.90
2018-04-19T18:33:25.984Z,5.30
2018-04-19T18:35:54.265Z,4.43
2018-04-19T18:38:22.568Z,5.33
2018-04-19T18:40:50.092Z,5.10
2018-04-19T18:43:18.380Z,5.77
2018-04-19T18:45:46.676Z,6.80
2018-04-19T18:48:14.194Z,8.33
2018-04-19T18:50:41.717Z,8.10
2018-04-19T18:53:09.237Z,6.17
2018-04-19T18:55:36.771Z,6.70
2018-04-19T18:58:05.071Z,6.03
2018-04-19T19:00:32.656Z,5.87
2018-04-19T19:03:00.175Z,5.50
2018-04-19T19:05:27.727Z,7.20
2018-04-19T19:07:56.008Z,6.23
2018-04-19T19:10:24.357Z,7.13
2018-04-19T19:12:51.898Z,4.80
2018-04-19T19:18:46.676Z,6.13
2018-04-19T19:21:14.207Z,5.57
2018-04-19T19:23:42.488Z,5.97
2018-04-19T19:26:10.792Z,5.73
2018-04-19T19:28:38.299Z,5.20
2018-04-19T19:31:05.822Z,6.10
2018-04-19T19:33:33.374Z,5.83
2018-04-19T19:36:00.909Z,5.70
2018-04-19T19:38:28.453Z,6.23
2018-04-19T19:40:56.759Z,7.10
2018-04-19T19:43:24.291Z,5.20
2018-04-19T19:45:52.607Z,5.60
2018-04-19T19:48:20.133Z,6.30
2018-04-19T19:50:48.440Z,6.20
2018-04-19T19:53:15.972Z,6.53
2018-04-19T19:55:43.488Z,6.80
2018-04-19T19:58:11.027Z,6.60
2018-04-19T20:00:38.582Z,7.00
2018-04-19T20:03:06.130Z,5.70
2018-04-19T20:05:33.677Z,6.60
2018-04-19T20:08:01.183Z,6.07
2018-04-19T20:10:28.805Z,5.43
2018-04-19T20:12:56.310Z,7.20
2018-04-19T20:15:24.620Z,5.63
2018-04-19T20:17:52.154Z,6.33
2018-04-19T20:20:20.447Z,6.67
2018-04-19T20:22:47.970Z,6.10
2018-04-19T20:25:15.523Z,7.00
2018-04-19T20:27:43.027Z,6.27
2018-04-19T20:30:10.531Z,6.87
2018-04-19T20:32:38.078Z,6.60
2018-04-19T20:35:05.648Z,7.40
2018-04-19T20:37:33.411Z,6.20
2018-04-19T20:40:01.116Z,7.07
2018-04-19T20:42:28.804Z,6.60
2018-04-19T20:44:56.519Z,6.83
2018-04-19T20:47:24.176Z,6.77
2018-04-19T20:49:54.807Z,7.10
2018-04-19T20:52:24.623Z,6.30
2018-04-19T20:54:53.187Z,7.80
2018-04-19T20:57:21.753Z,6.70
2018-04-19T20:59:50.171Z,7.53
2018-04-19T21:02:18.795Z,5.47
2018-04-19T21:04:46.505Z,7.30
2018-04-19T21:07:15.048Z,6.83
2018-04-19T21:09:42.558Z,6.57
2018-04-19T21:12:10.834Z,6.63
2018-04-19T21:14:39.119Z,6.80
2018-04-19T21:17:07.402Z,7.97
2018-04-19T21:19:34.927Z,5.33
2018-04-19T21:22:02.461Z,6.77
2018-04-19T21:24:29.994Z,6.90
2018-04-19T21:26:57.601Z,7.27
2018-04-19T21:29:25.219Z,6.53
2018-04-19T21:31:52.775Z,6.10
2018-04-19T21:34:20.458Z,6.40
2018-04-19T21:36:49.250Z,6.33
2018-04-19T21:39:17.047Z,6.30
2018-04-19T21:41:44.694Z,7.40
2018-04-19T21:44:12.337Z,6.30
2018-04-19T21:46:40.971Z,6.20
2018-04-19T21:49:08.566Z,7.73
2018-04-19T21:51:36.152Z,7.80
2018-04-19T21:54:03.806Z,7.43
2018-04-19T21:56:31.422Z,6.80
2018-04-19T21:58:59.073Z,7.07
2018-04-19T22:01:27.442Z,6.30
2018-04-19T22:03:55.068Z,7.70
2018-04-19T22:06:22.683Z,7.40
2018-04-19T22:08:50.285Z,6.90
2018-04-19T22:11:17.855Z,7.70
2018-04-19T22:13:45.351Z,7.60
2018-04-19T22:16:12.981Z,7.63
2018-04-19T22:18:40.521Z,8.30
2018-04-19T22:21:08.373Z,8.43
2018-04-19T22:23:35.951Z,6.60
2018-04-19T22:26:03.470Z,7.60
2018-04-19T22:28:30.977Z,7.50
2018-04-19T22:30:58.546Z,8.60
2018-04-19T22:33:26.822Z,8.40
2018-04-19T22:35:55.123Z,7.27
2018-04-19T22:38:22.669Z,6.40
2018-04-19T22:40:50.165Z,8.10
2018-04-19T22:43:17.690Z,7.37
2018-04-19T22:45:45.209Z,7.87
2018-04-19T22:48:12.717Z,7.40
2018-04-19T22:50:40.229Z,7.60
2018-04-19T22:53:07.744Z,8.80
2018-04-19T22:55:35.254Z,7.47
2018-04-19T22:58:03.519Z,7.60
2018-04-19T23:00:31.042Z,7.40
2018-04-19T23:02:58.594Z,7.10
2018-04-19T23:05:26.082Z,8.50
2018-04-19T23:07:53.679Z,7.60
2018-04-19T23:10:21.197Z,10.07
2018-04-19T23:12:48.719Z,21.53
2018-04-19T23:15:16.226Z,24.37
2018-04-19T23:17:44.539Z,24.77
2018-04-19T23:20:12.056Z,21.83
2018-04-19T23:22:39.560Z,16.47
2018-04-19T23:25:07.121Z,16.97
2018-04-19T23:27:34.605Z,14.97
2018-04-19T23:30:02.150Z,12.73
2018-04-19T23:32:29.653Z,9.37
2018-04-19T23:34:57.938Z,9.17
2018-04-19T23:37:26.218Z,8.57
2018-04-19T23:39:54.504Z,9.50
2018-04-19T23:42:22.007Z,8.70
2018-04-19T23:44:49.549Z,10.50
2018-04-19T23:47:17.070Z,8.20
2018-04-19T23:49:44.590Z,9.07
2018-04-19T23:52:12.084Z,8.27
2018-04-19T23:54:39.602Z,8.33
2018-04-19T23:57:07.117Z,9.10
2018-04-19T23:59:34.654Z,8.10
